Terminal Aerodrome Forecast
Issued by NWS

Home | Current Version | Previous Version | Text Only | Print | Product List | Glossary On
Versions: 1 2 3 4 5 6 7 8 9 10 11 12 13 14 15 16 17
000
FTAK31 PAJN 230500 AAA
TAFAKT
TAF AMD
PAKT 230530Z 2306/2406 VRB05KT P6SM VCSH BKN040 OVC050
      TEMPO 2306/2310 6SM -SHRA BKN025 OVC040
     FM231200 00000KT P6SM VCFG SCT005
     FM231900 VRB06KT P6SM SCT100
     FM240100 VRB05KT P6SM SKC
      AMD LTD TO CLD VIS AND WIND 2306/2315=

USA.gov is the U.S. government's official web portal to all federal, state and local government web resources and services.